Time;durP1;ratioP1;P1;durP2;ratioP2;P2;SDS_P1;SDS_P2;PMS_P1;PMS_P2;Temp;Humidity;BMP_temperature;BMP_pressure;BME280_temperature;BME280_humidity;BME280_pressure;Samples;Min_cycle;Max_cycle;Signal;HPM_P1;HPM_P2
2022/05/04 00:01:34;;;;;;;8.00;2.90;;;10.00;99.90;;;;;;4994242;28;20031;-67
2022/05/04 00:03:59;;;;;;;3.53;2.50;;;10.00;99.90;;;;;;4994150;28;20436;-67
2022/05/04 00:06:26;;;;;;;7.03;3.33;;;9.90;99.90;;;;;;4994038;28;20062;-67
2022/05/04 00:08:52;;;;;;;13.87;3.50;;;9.70;99.90;;;;;;4994051;28;20041;-68
2022/05/04 00:11:18;;;;;;;8.03;3.20;;;;;;;;;;4993936;28;20018;-67
2022/05/04 00:13:43;;;;;;;5.97;2.70;;;9.80;99.90;;;;;;4993510;28;20038;-67
2022/05/04 00:16:09;;;;;;;10.90;3.63;;;;;;;;;;4962631;28;20030;-67
2022/05/04 00:18:35;;;;;;;5.53;2.00;;;9.90;99.90;;;;;;4991581;28;20395;-67
2022/05/04 00:21:00;;;;;;;4.73;2.50;;;9.70;99.90;;;;;;4993623;28;20034;-67
2022/05/04 00:23:26;;;;;;;7.80;3.07;;;9.70;99.90;;;;;;4993834;28;20041;-67
2022/05/04 00:25:52;;;;;;;8.30;2.10;;;;;;;;;;4994089;28;20033;-67
2022/05/04 00:28:18;;;;;;;6.50;1.97;;;9.70;99.90;;;;;;4993114;28;20034;-67
2022/05/04 00:30:44;;;;;;;10.00;3.20;;;9.70;99.90;;;;;;4984131;28;20403;-67
2022/05/04 00:33:10;;;;;;;4.20;2.63;;;9.30;99.90;;;;;;4974270;28;20027;-67
2022/05/04 00:35:36;;;;;;;8.33;3.43;;;9.70;99.90;;;;;;4974138;28;20031;-67
2022/05/04 00:38:01;;;;;;;5.93;2.80;;;9.60;99.90;;;;;;4973917;28;20023;-67
2022/05/04 00:40:27;;;;;;;6.10;2.43;;;9.70;99.90;;;;;;4974218;28;20054;-67
2022/05/04 00:42:53;;;;;;;8.20;2.90;;;9.60;98.90;;;;;;4973792;28;20027;-67
2022/05/04 00:45:18;;;;;;;9.50;2.90;;;9.60;99.90;;;;;;4973831;28;20053;-67
2022/05/04 00:47:44;;;;;;;6.73;2.50;;;9.60;99.90;;;;;;4974024;28;20392;-67
2022/05/04 00:50:09;;;;;;;3.67;2.03;;;9.60;99.90;;;;;;4980094;28;20476;-67
2022/05/04 00:52:38;;;;;;;6.67;2.57;;;9.60;99.90;;;;;;4993139;28;20030;-67
2022/05/04 00:55:06;;;;;;;5.77;2.50;;;9.50;96.50;;;;;;4993029;28;20030;-67
2022/05/04 01:00:19;;;;;;;4.63;2.20;;;9.60;99.90;;;;;;4993332;28;20033;-67
2022/05/04 01:02:45;;;;;;;5.97;2.33;;;9.60;99.90;;;;;;4992807;28;20022;-67
2022/05/04 01:05:11;;;;;;;5.63;2.70;;;9.60;99.90;;;;;;4992894;28;20379;-67
2022/05/04 01:07:42;;;;;;;7.97;2.87;;;9.70;99.90;;;;;;4992996;28;20035;-67
2022/05/04 01:10:09;;;;;;;9.03;3.40;;;9.30;99.90;;;;;;4992843;28;20057;-67
2022/05/04 01:12:35;;;;;;;11.00;3.23;;;9.50;99.90;;;;;;4992545;28;20467;-67
2022/05/04 01:15:02;;;;;;;10.87;3.23;;;9.50;96.70;;;;;;4986995;28;20054;-67
2022/05/04 01:17:28;;;;;;;4.67;2.53;;;9.60;99.90;;;;;;4974475;28;20032;-67
2022/05/04 01:19:57;;;;;;;11.40;2.97;;;9.50;99.90;;;;;;4973715;28;20033;-67
2022/05/04 01:22:25;;;;;;;7.87;2.70;;;9.50;96.20;;;;;;4973545;28;20026;-67
2022/05/04 01:24:51;;;;;;;8.13;3.20;;;9.40;99.90;;;;;;4973446;28;20030;-67
2022/05/04 01:27:17;;;;;;;7.63;3.00;;;9.50;99.90;;;;;;4972571;28;20041;-67
2022/05/04 01:29:43;;;;;;;5.80;2.80;;;;;;;;;;4973083;28;20063;-67
2022/05/04 01:32:09;;;;;;;8.70;2.70;;;9.30;99.90;;;;;;4973109;28;20035;-67
2022/05/04 01:34:34;;;;;;;7.75;2.70;;;9.40;99.90;;;;;;4973277;28;20034;-68
2022/05/04 01:37:03;;;;;;;6.63;2.93;;;9.20;99.90;;;;;;4972918;28;20037;-67
2022/05/04 01:39:29;;;;;;;3.63;2.60;;;9.40;99.90;;;;;;4972468;28;20107;-67
2022/05/04 01:42:05;;;;;;;6.73;2.67;;;9.30;99.90;;;;;;4972892;28;20503;-67
2022/05/04 01:44:31;;;;;;;11.30;3.57;;;9.40;99.90;;;;;;4974698;28;20031;-67
2022/05/04 01:46:57;;;;;;;6.40;2.60;;;9.30;99.90;;;;;;4991950;28;20513;-67
2022/05/04 01:49:23;;;;;;;7.80;2.90;;;;;;;;;;4992117;28;20102;-67
2022/05/04 01:51:49;;;;;;;13.30;2.90;;;;;;;;;;4992090;28;20034;-67
2022/05/04 01:54:15;;;;;;;9.10;2.70;;;9.40;99.90;;;;;;4991443;28;20050;-67
2022/05/04 01:56:40;;;;;;;5.07;2.30;;;;;;;;;;4991799;28;20033;-67
2022/05/04 01:59:06;;;;;;;9.23;2.60;;;8.90;99.90;;;;;;4991778;28;20419;-67
2022/05/04 02:01:33;;;;;;;8.20;2.90;;;9.30;99.90;;;;;;4974276;28;20469;-67
2022/05/04 02:03:59;;;;;;;6.33;2.33;;;9.20;99.90;;;;;;4972624;28;20373;-67
2022/05/04 02:06:25;;;;;;;7.17;2.57;;;9.10;99.80;;;;;;4972526;28;20127;-67
2022/05/04 02:08:52;;;;;;;8.33;3.50;;;9.30;99.90;;;;;;4972186;28;20109;-67
2022/05/04 02:11:17;;;;;;;8.30;3.07;;;9.10;99.90;;;;;;4972296;28;20521;-67
2022/05/04 02:13:43;;;;;;;10.03;3.57;;;9.00;97.30;;;;;;4971918;28;20038;-67
2022/05/04 02:16:09;;;;;;;10.73;2.70;;;9.20;99.90;;;;;;4986643;28;20022;-67
2022/05/04 02:18:35;;;;;;;5.33;2.83;;;;;;;;;;4974212;28;20026;-67
2022/05/04 02:21:01;;;;;;;6.90;3.07;;;9.10;99.90;;;;;;4974151;28;20451;-67
2022/05/04 02:23:27;;;;;;;8.00;2.87;;;;;;;;;;4991149;28;20068;-67
2022/05/04 02:25:52;;;;;;;12.20;2.90;;;9.10;99.90;;;;;;4991600;28;20034;-67
2022/05/04 02:28:18;;;;;;;9.20;2.93;;;9.00;99.90;;;;;;4991290;28;20042;-67
2022/05/04 02:30:44;;;;;;;6.27;2.80;;;9.00;99.90;;;;;;4991295;28;20073;-68
2022/05/04 02:33:11;;;;;;;6.20;2.77;;;9.10;99.90;;;;;;4974798;28;20042;-67
2022/05/04 02:38:24;;;;;;;6.93;2.80;;;;;;;;;;4971424;28;20468;-67
2022/05/04 02:40:50;;;;;;;10.63;3.33;;;;;;;;;;4970754;28;20019;-67
2022/05/04 02:43:16;;;;;;;9.37;3.13;;;8.90;99.90;;;;;;4970538;28;20053;-67
2022/05/04 02:45:41;;;;;;;9.67;3.47;;;9.00;99.90;;;;;;4982640;28;20031;-67
2022/05/04 02:48:08;;;;;;;6.77;2.97;;;8.90;99.90;;;;;;4973830;28;20065;-67
2022/05/04 02:50:34;;;;;;;9.83;2.93;;;8.90;99.90;;;;;;4991330;28;20498;-67
2022/05/04 02:53:00;;;;;;;5.20;2.57;;;8.80;99.90;;;;;;4990928;28;20034;-68
2022/05/04 02:55:26;;;;;;;6.20;3.17;;;;;;;;;;4991012;28;20030;-67
2022/05/04 02:57:51;;;;;;;5.47;3.17;;;8.80;99.90;;;;;;4991353;28;20034;-67
2022/05/04 03:00:17;;;;;;;6.87;2.43;;;8.70;99.90;;;;;;4983717;28;20415;-67
2022/05/04 03:02:44;;;;;;;9.13;2.87;;;8.80;99.90;;;;;;4971780;28;20035;-67
2022/05/04 03:05:10;;;;;;;6.50;2.97;;;8.70;97.80;;;;;;4971011;28;20031;-67
2022/05/04 03:07:36;;;;;;;5.70;2.97;;;8.70;99.90;;;;;;4970985;28;20399;-67
2022/05/04 03:10:03;;;;;;;7.10;3.07;;;8.60;99.90;;;;;;4971413;28;20038;-67
2022/05/04 03:12:29;;;;;;;7.60;2.70;;;;;;;;;;4971658;28;20058;-67
2022/05/04 03:14:55;;;;;;;5.67;3.30;;;8.50;99.90;;;;;;4976344;28;20053;-67
2022/05/04 03:17:21;;;;;;;6.00;2.93;;;8.60;99.90;;;;;;4983097;28;20396;-67
2022/05/04 03:19:47;;;;;;;9.00;3.13;;;8.50;99.90;;;;;;4981520;28;20539;-67
2022/05/04 03:22:13;;;;;;;7.17;2.77;;;8.40;99.90;;;;;;4990442;28;20118;-67
2022/05/04 03:24:39;;;;;;;6.73;2.87;;;8.40;99.90;;;;;;4990810;28;20419;-68
2022/05/04 03:27:05;;;;;;;7.07;3.00;;;8.40;99.90;;;;;;4993740;28;20038;-67
2022/05/04 03:29:31;;;;;;;7.30;3.70;;;;;;;;;;4994695;28;20054;-67
2022/05/04 03:31:57;;;;;;;5.33;3.07;;;8.30;99.90;;;;;;4994109;28;20033;-67
2022/05/04 03:34:23;;;;;;;9.90;3.67;;;;;;;;;;4993327;28;20038;-67
2022/05/04 03:36:48;;;;;;;4.33;2.50;;;8.30;99.90;;;;;;4993993;28;20034;-67
2022/05/04 03:39:14;;;;;;;5.10;2.67;;;8.30;99.90;;;;;;4994443;28;20081;-68
2022/05/04 03:41:40;;;;;;;5.83;2.50;;;8.30;99.90;;;;;;4994453;28;20475;-67
2022/05/04 03:44:06;;;;;;;9.50;2.77;;;8.30;99.90;;;;;;4994494;28;20030;-67
2022/05/04 03:46:46;;;;;;;6.57;2.73;;;8.20;99.90;;;;;;4994647;28;20430;-67
2022/05/04 03:49:13;;;;;;;5.47;2.73;;;8.30;99.90;;;;;;4994471;28;20096;-67
2022/05/04 03:51:39;;;;;;;5.83;2.70;;;;;;;;;;4982164;28;20039;-67
2022/05/04 03:54:05;;;;;;;6.40;2.47;;;;;;;;;;4974773;28;20380;-67
2022/05/04 03:56:31;;;;;;;5.90;2.63;;;8.30;99.90;;;;;;4975044;28;20030;-67
2022/05/04 03:58:56;;;;;;;10.60;3.47;;;8.30;99.90;;;;;;4974695;28;20035;-67
2022/05/04 04:01:22;;;;;;;7.47;3.00;;;8.30;99.90;;;;;;4974712;28;20058;-67
2022/05/04 04:03:47;;;;;;;6.93;3.07;;;8.30;99.90;;;;;;4983441;28;20092;-67
2022/05/04 04:06:13;;;;;;;4.17;2.80;;;;;;;;;;4993448;28;20041;-67
2022/05/04 04:08:39;;;;;;;9.17;3.07;;;8.40;99.90;;;;;;4994034;28;20071;-67
2022/05/04 04:11:05;;;;;;;3.43;2.57;;;8.30;99.90;;;;;;4993901;28;20061;-67
2022/05/04 04:13:31;;;;;;;10.33;3.87;;;;;;;;;;4994163;28;20022;-67
2022/05/04 04:15:57;;;;;;;6.97;3.23;;;;;;;;;;4993905;28;20109;-67
2022/05/04 04:18:24;;;;;;;10.87;3.63;;;8.50;99.50;;;;;;4988641;28;20097;-67
2022/05/04 04:23:36;;;;;;;4.47;2.90;;;8.20;99.90;;;;;;4960016;28;20093;-67
2022/05/04 04:26:04;;;;;;;6.53;3.83;;;8.20;99.90;;;;;;4974259;28;20039;-67
2022/05/04 04:28:34;;;;;;;13.63;4.23;;;8.20;99.90;;;;;;4973012;28;20067;-67
2022/05/04 04:31:01;;;;;;;11.97;4.37;;;8.20;99.90;;;;;;4974002;28;20105;-67
2022/05/04 04:33:27;;;;;;;6.90;3.20;;;;;;;;;;4978666;28;20461;-67
2022/05/04 04:35:53;;;;;;;8.97;2.90;;;8.00;98.90;;;;;;4993276;28;20510;-67
2022/05/04 04:38:19;;;;;;;9.00;3.43;;;8.10;99.90;;;;;;4992438;28;20054;-67
2022/05/04 04:40:45;;;;;;;15.53;3.47;;;8.00;99.90;;;;;;4975788;28;20072;-67
2022/05/04 04:43:11;;;;;;;8.60;3.40;;;8.00;99.90;;;;;;4989765;28;20038;-67
2022/05/04 04:45:36;;;;;;;11.97;3.13;;;7.90;99.90;;;;;;4974083;28;20045;-67
2022/05/04 04:48:02;;;;;;;7.33;2.97;;;;;;;;;;4973267;28;20049;-67
2022/05/04 04:50:28;;;;;;;20.27;3.37;;;7.80;99.90;;;;;;4973641;28;20035;-67
2022/05/04 04:52:54;;;;;;;7.53;3.70;;;;;;;;;;4973595;28;20038;-67
2022/05/04 04:55:19;;;;;;;15.57;3.53;;;7.90;99.90;;;;;;4973724;28;20027;-67
2022/05/04 04:57:45;;;;;;;11.10;3.40;;;;;;;;;;4974310;28;20387;-67
2022/05/04 05:00:11;;;;;;;7.37;3.33;;;7.90;99.90;;;;;;4983482;28;20031;-67
2022/05/04 05:02:37;;;;;;;6.43;3.00;;;;;;;;;;4972799;28;20027;-67
2022/05/04 05:05:03;;;;;;;5.57;2.63;;;7.80;99.90;;;;;;4973515;28;20038;-67
2022/05/04 05:07:29;;;;;;;10.60;3.20;;;;;;;;;;4973477;28;20038;-68
2022/05/04 05:09:56;;;;;;;9.87;2.80;;;7.70;99.90;;;;;;4973747;28;20031;-67
2022/05/04 05:12:22;;;;;;;9.13;3.83;;;7.70;99.90;;;;;;4973545;28;20030;-67
2022/05/04 05:17:34;;;;;;;8.90;3.30;;;7.80;99.90;;;;;;4991199;28;20038;-67
2022/05/04 05:20:00;;;;;;;7.97;2.77;;;7.50;99.90;;;;;;4992636;28;20114;-67
2022/05/04 05:22:26;;;;;;;8.50;4.20;;;7.70;99.90;;;;;;4992102;28;20042;-67
2022/05/04 05:24:51;;;;;;;11.20;3.13;;;7.90;99.90;;;;;;4992917;28;20035;-67
2022/05/04 05:27:17;;;;;;;8.87;3.03;;;;;;;;;;4992460;28;20042;-67
2022/05/04 05:29:43;;;;;;;6.63;4.00;;;7.90;99.90;;;;;;4992278;28;20305;-67
2022/05/04 05:32:08;;;;;;;12.17;4.13;;;7.80;99.90;;;;;;4991969;28;20468;-68
2022/05/04 05:34:34;;;;;;;14.27;3.90;;;8.30;99.90;;;;;;4983566;28;20084;-67
2022/05/04 05:37:01;;;;;;;12.77;4.77;;;7.90;99.90;;;;;;4981666;28;20027;-67
2022/05/04 05:39:27;;;;;;;7.50;3.33;;;8.10;99.90;;;;;;4980385;28;20022;-67
2022/05/04 05:41:53;;;;;;;12.10;3.07;;;;;;;;;;4992114;28;20045;-67
2022/05/04 05:44:18;;;;;;;12.53;3.97;;;;;;;;;;4991500;28;20105;-67
2022/05/04 05:46:45;;;;;;;12.50;3.93;;;;;;;;;;4985115;28;20039;-68
2022/05/04 05:49:10;;;;;;;8.07;3.30;;;8.40;99.90;;;;;;4991709;28;20407;-68
2022/05/04 05:51:36;;;;;;;11.30;3.40;;;;;;;;;;4990854;28;20030;-68
2022/05/04 05:54:02;;;;;;;14.23;3.67;;;;;;;;;;4973567;28;20053;-68
2022/05/04 05:56:28;;;;;;;14.47;3.70;;;;;;;;;;4986049;28;20058;-68
2022/05/04 05:58:53;;;;;;;11.17;3.50;;;8.30;99.90;;;;;;4991798;28;20475;-68
2022/05/04 06:01:19;;;;;;;11.03;3.53;;;8.30;99.90;;;;;;4980022;28;20027;-68
2022/05/04 06:03:44;;;;;;;13.90;4.27;;;8.40;99.90;;;;;;4972557;28;20023;-68
2022/05/04 06:06:10;;;;;;;10.70;4.03;;;;;;;;;;4972436;28;20078;-68
2022/05/04 06:08:36;;;;;;;10.93;4.03;;;8.50;99.90;;;;;;4972234;28;20046;-69
2022/05/04 06:11:01;;;;;;;13.50;4.10;;;8.50;99.90;;;;;;4972407;28;20068;-69
2022/05/04 06:13:27;;;;;;;13.13;3.67;;;8.50;99.90;;;;;;4983071;28;20034;-68
2022/05/04 06:15:53;;;;;;;10.63;4.03;;;;;;;;;;4991538;28;20108;-68
2022/05/04 06:18:18;;;;;;;11.03;3.33;;;9.00;99.90;;;;;;4988627;28;20157;-68
2022/05/04 06:20:44;;;;;;;10.40;4.23;;;8.70;99.90;;;;;;4991650;28;20058;-67
2022/05/04 06:23:10;;;;;;;7.63;3.33;;;8.70;99.90;;;;;;4991436;28;20463;-67
2022/05/04 06:25:36;;;;;;;14.33;4.07;;;;;;;;;;4991228;28;20550;-67
2022/05/04 06:28:02;;;;;;;12.57;3.30;;;8.70;99.90;;;;;;4973419;28;20373;-67
2022/05/04 06:35:57;;;;;;;13.80;3.97;;;9.00;99.80;;;;;;4983228;28;20113;-68
2022/05/04 06:38:22;;;;;;;13.77;3.67;;;;;;;;;;4971813;28;20121;-69
2022/05/04 06:40:48;;;;;;;14.23;4.93;;;8.60;99.90;;;;;;4971996;28;20149;-68
2022/05/04 06:43:13;;;;;;;8.33;3.13;;;9.20;99.90;;;;;;4990922;28;20365;-68
2022/05/04 06:45:39;;;;;;;12.93;4.03;;;9.20;99.90;;;;;;4990873;28;20031;-68
2022/05/04 06:48:06;;;;;;;11.53;4.03;;;9.20;99.90;;;;;;4984823;28;20042;-69
2022/05/04 06:50:31;;;;;;;11.57;3.37;;;;;;;;;;4982599;28;20098;-69
2022/05/04 06:52:57;;;;;;;9.50;2.73;;;9.30;99.90;;;;;;4971814;28;20050;-68
2022/05/04 06:55:23;;;;;;;8.43;2.87;;;;;;;;;;4984750;28;20014;-69
2022/05/04 06:57:48;;;;;;;14.50;3.20;;;9.40;99.90;;;;;;4974241;28;20066;-68
2022/05/04 07:00:14;;;;;;;9.57;2.77;;;9.30;96.40;;;;;;4969541;28;20057;-69
2022/05/04 07:02:40;;;;;;;14.40;3.40;;;9.50;99.90;;;;;;4954372;28;20389;-68
2022/05/04 07:05:06;;;;;;;10.13;3.50;;;9.70;96.00;;;;;;4971867;28;20037;-68
2022/05/04 07:07:32;;;;;;;10.57;3.03;;;9.60;99.90;;;;;;4971506;28;20046;-68
2022/05/04 07:09:58;;;;;;;9.23;2.27;;;9.80;99.90;;;;;;4971613;28;20539;-69
2022/05/04 07:12:24;;;;;;;5.57;2.47;;;10.00;99.90;;;;;;4971434;28;20030;-67
2022/05/04 07:14:51;;;;;;;8.77;3.13;;;9.90;99.90;;;;;;4982261;28;20133;-69
2022/05/04 07:17:17;;;;;;;7.60;3.40;;;10.00;99.90;;;;;;4990651;28;20101;-68
2022/05/04 07:19:43;;;;;;;11.43;3.47;;;10.10;99.90;;;;;;4991031;28;20484;-68
2022/05/04 07:22:09;;;;;;;5.00;2.30;;;10.10;99.90;;;;;;4990771;28;20034;-68
2022/05/04 07:24:34;;;;;;;6.07;2.03;;;10.20;99.90;;;;;;4991000;28;20034;-68
2022/05/04 07:26:59;;;;;;;8.67;2.10;;;10.30;99.90;;;;;;4990845;28;20042;-68
2022/05/04 07:29:26;;;;;;;6.30;2.43;;;;;;;;;;4981392;28;20050;-68
2022/05/04 07:31:52;;;;;;;4.33;2.37;;;;;;;;;;4972229;28;20481;-68
2022/05/04 07:34:18;;;;;;;8.87;2.43;;;10.40;99.90;;;;;;4990500;28;20023;-67
2022/05/04 07:36:44;;;;;;;4.20;1.97;;;;;;;;;;4984875;28;20049;-69
2022/05/04 07:42:21;;;;;;;4.90;2.72;;;10.60;99.90;;;;;;4973447;28;20029;-69
2022/05/04 07:44:40;;;;;;;8.93;2.83;;;10.60;99.90;;;;;;4971766;28;20054;-69
2022/05/04 07:47:06;;;;;;;8.67;2.87;;;10.70;99.90;;;;;;4953859;28;20129;-69
2022/05/04 07:49:32;;;;;;;6.10;2.50;;;10.80;99.90;;;;;;4982476;28;20038;-69
2022/05/04 07:51:57;;;;;;;7.33;2.87;;;10.80;99.90;;;;;;4989515;28;20076;-69
2022/05/04 07:54:23;;;;;;;5.87;2.20;;;10.90;99.90;;;;;;4990085;28;20029;-68
2022/05/04 07:56:49;;;;;;;5.90;2.47;;;10.90;99.90;;;;;;4971421;28;20530;-69
2022/05/04 07:59:14;;;;;;;17.03;3.40;;;11.00;97.20;;;;;;4971143;28;20038;-69
2022/05/04 08:04:24;;;;;;;5.43;3.10;;;;;;;;;;4969855;28;20190;-69
2022/05/04 08:06:50;;;;;;;6.67;2.83;;;11.20;99.90;;;;;;4987512;28;20110;-69
2022/05/04 08:09:16;;;;;;;7.40;2.78;;;11.30;92.90;;;;;;4989239;28;20039;-70
2022/05/04 08:11:43;;;;;;;8.65;3.13;;;11.30;99.90;;;;;;4987598;28;20116;-69
2022/05/04 08:14:09;;;;;;;7.05;2.95;;;11.50;99.90;;;;;;4993161;28;20142;-68
2022/05/04 08:16:35;;;;;;;7.97;4.07;;;11.30;99.70;;;;;;4994216;28;20045;-69
2022/05/04 08:19:00;;;;;;;7.63;3.72;;;11.30;99.60;;;;;;4993811;28;20022;-69
2022/05/04 08:21:26;;;;;;;6.40;3.00;;;11.40;99.70;;;;;;4993682;28;20031;-69
2022/05/04 08:23:52;;;;;;;12.18;3.83;;;11.40;99.70;;;;;;4993937;28;20480;-69
2022/05/04 08:26:17;;;;;;;7.45;3.42;;;11.50;99.40;;;;;;4993221;28;20033;-69
2022/05/04 08:28:43;;;;;;;8.52;2.90;;;11.80;94.70;;;;;;4993490;28;20511;-69
2022/05/04 08:31:08;;;;;;;8.70;2.87;;;11.60;99.30;;;;;;4992330;28;20052;-69
2022/05/04 08:33:35;;;;;;;9.60;3.55;;;11.90;99.20;;;;;;4975441;28;20035;-68
2022/05/04 08:36:01;;;;;;;9.38;4.05;;;11.80;98.70;;;;;;4974051;28;20015;-69
2022/05/04 08:38:27;;;;;;;8.27;2.97;;;;;;;;;;4973181;28;20035;-69
2022/05/04 08:40:56;;;;;;;6.25;2.85;;;12.10;98.80;;;;;;4971897;28;20026;-69
2022/05/04 08:43:25;;;;;;;4.93;3.08;;;11.90;98.70;;;;;;4973683;28;20027;-69
2022/05/04 08:45:52;;;;;;;10.50;3.05;;;12.20;98.70;;;;;;4975491;28;20715;-69
2022/05/04 08:48:19;;;;;;;6.28;2.25;;;12.60;98.80;;;;;;4993030;28;20487;-70
2022/05/04 08:50:45;;;;;;;8.40;3.00;;;12.40;98.80;;;;;;4993380;28;20033;-69
2022/05/04 08:53:12;;;;;;;5.47;2.88;;;12.90;98.80;;;;;;4993137;28;20031;-69
2022/05/04 08:55:38;;;;;;;4.22;2.53;;;12.90;98.70;;;;;;4992866;28;20030;-69
2022/05/04 08:58:07;;;;;;;9.13;3.28;;;12.80;98.10;;;;;;4992990;28;20030;-69
2022/05/04 09:00:33;;;;;;;10.93;4.00;;;13.00;97.90;;;;;;4992831;28;20035;-69
2022/05/04 09:02:59;;;;;;;8.70;2.80;;;12.90;91.00;;;;;;4975580;28;20069;-68
2022/05/04 09:05:27;;;;;;;4.60;2.50;;;12.80;97.40;;;;;;4993193;28;20050;-69
2022/05/04 09:07:57;;;;;;;8.75;3.10;;;12.90;97.80;;;;;;4993126;28;20085;-69
2022/05/04 09:10:31;;;;;;;9.75;2.97;;;12.80;91.10;;;;;;4992747;28;20068;-69
2022/05/04 09:12:56;;;;;;;5.85;2.13;;;12.90;90.20;;;;;;4992975;28;20030;-69
2022/05/04 09:15:26;;;;;;;5.63;2.30;;;12.90;90.70;;;;;;4993138;28;20023;-69
2022/05/04 09:18:00;;;;;;;8.93;3.13;;;12.90;90.90;;;;;;4992724;28;20379;-69
2022/05/04 09:23:16;;;;;;;8.82;3.35;;;12.90;96.80;;;;;;4992739;28;19913;-69
2022/05/04 09:25:42;;;;;;;9.95;3.00;;;13.20;97.30;;;;;;4992565;28;20027;-69
2022/05/04 09:28:13;;;;;;;5.90;2.78;;;13.20;90.10;;;;;;4992469;28;20061;-69
2022/05/04 09:30:56;;;;;;;8.57;3.78;;;13.20;96.60;;;;;;4991675;28;20042;-69
2022/05/04 09:33:26;;;;;;;7.03;3.75;;;13.40;96.70;;;;;;4973066;28;20031;-69
2022/05/04 09:35:52;;;;;;;8.02;4.53;;;13.50;96.90;;;;;;4973253;28;20029;-69
2022/05/04 09:46:46;;;;;;;5.60;3.70;;;13.80;88.30;;;;;;4972974;28;20396;-69
2022/05/04 09:49:22;;;;;;;8.52;3.85;;;13.80;88.30;;;;;;4981731;28;20395;-68
2022/05/04 09:51:53;;;;;;;7.05;4.22;;;13.90;88.70;;;;;;4991707;28;20031;-68
2022/05/04 09:54:23;;;;;;;11.15;4.70;;;14.00;88.10;;;;;;4991529;28;20030;-69
2022/05/04 09:56:52;;;;;;;7.72;4.68;;;14.30;95.80;;;;;;4988238;28;20045;-69
2022/05/04 09:59:20;;;;;;;7.03;4.85;;;14.20;85.10;;;;;;4990836;28;20468;-69
2022/05/04 10:01:46;;;;;;;5.85;4.25;;;14.40;87.50;;;;;;4991838;28;20091;-69
2022/05/04 10:04:12;;;;;;;9.80;4.40;;;14.50;86.20;;;;;;4991714;28;20034;-69
2022/05/04 10:06:39;;;;;;;8.43;5.55;;;14.60;86.20;;;;;;4986524;28;20030;-69
2022/05/04 10:09:05;;;;;;;5.60;4.88;;;14.70;85.30;;;;;;4954625;28;20039;-69
2022/05/04 10:11:33;;;;;;;12.85;5.13;;;14.70;84.80;;;;;;4966781;28;20360;-69
2022/05/04 10:14:03;;;;;;;6.93;4.30;;;14.60;85.10;;;;;;4991515;28;20031;-68
2022/05/04 10:16:39;;;;;;;6.55;4.07;;;14.50;85.30;;;;;;4991230;28;20026;-69
2022/05/04 10:19:08;;;;;;;8.93;4.90;;;14.60;85.50;;;;;;4990923;28;20471;-69
2022/05/04 10:21:36;;;;;;;6.50;4.28;;;14.70;85.20;;;;;;4991152;28;20084;-69
2022/05/04 10:24:06;;;;;;;14.38;5.07;;;14.70;85.10;;;;;;4990386;28;20022;-70
2022/05/04 10:26:36;;;;;;;9.07;5.47;;;14.90;84.70;;;;;;4988382;28;20467;-70
2022/05/04 10:32:32;;;;;;;10.38;4.25;;;15.00;83.20;;;;;;4987185;28;20038;-70
2022/05/04 10:35:20;;;;;;;6.53;5.40;;;15.00;85.20;;;;;;4990995;28;20026;-70
2022/05/04 10:37:58;;;;;;;12.38;4.72;;;15.10;81.80;;;;;;4991018;28;20026;-70
2022/05/04 10:40:25;;;;;;;10.30;4.97;;;15.00;82.40;;;;;;4991635;28;20026;-69
2022/05/04 10:43:21;;;;;;;8.82;5.15;;;14.80;84.10;;;;;;4991561;28;20795;-69
2022/05/04 10:45:48;;;;;;;8.65;4.63;;;15.10;82.50;;;;;;4961318;28;20086;-71
2022/05/04 10:48:21;;;;;;;10.15;4.95;;;14.90;83.50;;;;;;4990278;28;20046;-67
2022/05/04 10:50:55;;;;;;;11.55;6.10;;;14.80;84.20;;;;;;4991203;28;20137;-67
2022/05/04 10:53:23;;;;;;;7.97;4.63;;;16.40;86.30;;;;;;4991425;28;20084;-67
2022/05/04 10:56:02;;;;;;;7.05;4.65;;;14.70;85.60;;;;;;4991414;28;20031;-67
2022/05/04 10:58:36;;;;;;;7.43;4.93;;;14.60;86.00;;;;;;4991183;28;20506;-68
2022/05/04 11:01:05;;;;;;;13.30;5.22;;;14.70;86.30;;;;;;4989407;28;20044;-70
2022/05/04 11:03:33;;;;;;;6.72;5.10;;;14.70;83.30;;;;;;4980191;28;20100;-71
2022/05/04 11:06:03;;;;;;;7.90;4.75;;;14.70;85.20;;;;;;4988711;28;20041;-70
2022/05/04 11:08:34;;;;;;;10.98;5.03;;;14.80;85.40;;;;;;4991040;28;20042;-69
2022/05/04 11:11:00;;;;;;;8.55;5.03;;;14.80;85.60;;;;;;4973560;28;20046;-71
2022/05/04 11:13:25;;;;;;;9.40;5.32;;;15.00;84.60;;;;;;4990391;28;20064;-70
2022/05/04 11:15:55;;;;;;;9.50;7.30;;;14.90;84.40;;;;;;4989444;28;20038;-70
2022/05/04 11:18:20;;;;;;;11.20;7.25;;;14.90;83.40;;;;;;4989731;28;20171;-69
2022/05/04 11:20:50;;;;;;;10.98;6.05;;;14.80;83.70;;;;;;4972873;28;20113;-70
2022/05/04 11:23:25;;;;;;;7.43;5.78;;;14.80;85.20;;;;;;4990972;28;20034;-70
2022/05/04 11:25:51;;;;;;;13.45;6.75;;;14.80;85.10;;;;;;4990867;28;20041;-70
2022/05/04 11:28:23;;;;;;;11.52;5.60;;;14.70;83.80;;;;;;4990496;28;20049;-70
2022/05/04 11:30:52;;;;;;;10.85;6.55;;;14.80;84.50;;;;;;4990164;28;20105;-70
2022/05/04 11:33:18;;;;;;;11.27;6.75;;;14.80;83.70;;;;;;4990808;28;20029;-70
2022/05/04 11:35:50;;;;;;;8.13;5.35;;;15.00;83.60;;;;;;4990605;28;20034;-70
2022/05/04 11:38:20;;;;;;;8.05;5.50;;;14.80;83.40;;;;;;4990336;28;20038;-69
2022/05/04 11:40:47;;;;;;;13.68;6.00;;;14.80;84.30;;;;;;4972222;28;20034;-70
2022/05/04 11:43:22;;;;;;;7.75;4.38;;;15.40;84.30;;;;;;4971322;28;20523;-70
2022/05/04 11:45:49;;;;;;;11.68;5.63;;;15.00;84.80;;;;;;4971451;28;20051;-70
2022/05/04 11:48:17;;;;;;;11.43;6.82;;;15.10;83.20;;;;;;4974239;28;20395;-68
2022/05/04 11:50:43;;;;;;;8.68;5.97;;;15.20;82.60;;;;;;4987536;28;20462;-71
2022/05/04 11:53:09;;;;;;;12.82;6.60;;;15.20;81.50;;;;;;4994213;28;20059;-70
2022/05/04 11:55:35;;;;;;;9.52;6.43;;;15.30;81.70;;;;;;4993612;28;20034;-71
2022/05/04 11:58:00;;;;;;;9.43;5.43;;;15.10;81.50;;;;;;4993981;28;20526;-70
2022/05/04 12:00:26;;;;;;;6.80;4.78;;;14.80;81.40;;;;;;4990723;28;20022;-70
2022/05/04 12:02:52;;;;;;;7.47;5.22;;;15.00;81.90;;;;;;4994367;28;20080;-71
2022/05/04 12:05:18;;;;;;;13.70;5.95;;;15.20;82.60;;;;;;4993578;28;20034;-71
2022/05/04 12:07:44;;;;;;;7.55;5.00;;;15.30;81.70;;;;;;4989620;28;20512;-70
2022/05/04 12:10:11;;;;;;;10.43;6.63;;;15.30;81.10;;;;;;4978437;28;20035;-71
2022/05/04 12:12:37;;;;;;;9.15;6.10;;;15.40;80.60;;;;;;4976861;28;20023;-70
2022/05/04 12:15:04;;;;;;;9.68;6.20;;;15.40;80.10;;;;;;4994287;28;20105;-71
2022/05/04 12:17:29;;;;;;;7.75;5.22;;;15.40;79.30;;;;;;4993588;28;20030;-70
2022/05/04 12:19:55;;;;;;;7.13;5.22;;;15.50;79.20;;;;;;4993937;28;20041;-70
2022/05/04 12:22:21;;;;;;;4.93;3.67;;;15.50;79.30;;;;;;4991670;28;20040;-70
2022/05/04 12:24:47;;;;;;;6.18;4.47;;;15.60;79.00;;;;;;4989660;28;20034;-71
2022/05/04 12:27:13;;;;;;;8.00;4.13;;;15.70;78.50;;;;;;4978907;28;20502;-70
2022/05/04 12:35:09;;;;;;;7.90;5.00;;;16.10;77.60;;;;;;4993632;28;20084;-70
2022/05/04 12:37:35;;;;;;;9.60;4.90;;;16.10;76.80;;;;;;4993691;28;20034;-69
2022/05/04 12:40:02;;;;;;;12.18;5.47;;;16.20;76.70;;;;;;4975872;28;20030;-69
2022/05/04 12:42:28;;;;;;;10.45;6.43;;;16.20;76.20;;;;;;4976047;28;20475;-69
2022/05/04 12:44:54;;;;;;;10.98;5.20;;;16.10;75.40;;;;;;4990794;28;20092;-69
2022/05/04 12:47:23;;;;;;;9.70;5.43;;;16.20;75.30;;;;;;4973337;28;20554;-69
2022/05/04 12:49:49;;;;;;;7.85;5.45;;;16.20;76.50;;;;;;4956824;28;20054;-69
2022/05/04 12:52:15;;;;;;;10.68;6.57;;;16.20;75.60;;;;;;4974123;28;20845;-70
2022/05/04 12:54:41;;;;;;;9.70;6.07;;;16.30;76.30;;;;;;4988897;28;20041;-70
2022/05/04 12:57:06;;;;;;;12.88;5.95;;;16.30;75.40;;;;;;4993278;28;20439;-69
2022/05/04 12:59:32;;;;;;;8.25;4.75;;;16.40;74.90;;;;;;4992436;28;20022;-69
2022/05/04 13:01:58;;;;;;;7.72;5.53;;;16.50;74.50;;;;;;4956951;28;20066;-70
2022/05/04 13:04:23;;;;;;;13.77;4.13;;;16.50;73.00;;;;;;4973823;28;20387;-69
2022/05/04 13:06:49;;;;;;;10.45;4.22;;;16.50;73.20;;;;;;4973410;28;20043;-70
2022/05/04 13:09:14;;;;;;;5.38;4.00;;;16.70;73.40;;;;;;4973735;28;20045;-70
2022/05/04 13:11:41;;;;;;;13.88;5.82;;;16.00;73.00;;;;;;4973522;28;20045;-69
2022/05/04 13:14:07;;;;;;;5.60;4.00;;;16.90;73.30;;;;;;4973350;28;20030;-69
2022/05/04 13:16:33;;;;;;;6.85;4.43;;;17.00;73.00;;;;;;4973036;28;20388;-69
2022/05/04 13:19:00;;;;;;;6.05;3.67;;;17.20;73.40;;;;;;4973429;28;20027;-70
2022/05/04 13:21:25;;;;;;;12.85;6.85;;;17.30;73.60;;;;;;4989220;28;20085;-69
2022/05/04 13:23:51;;;;;;;5.68;5.10;;;17.40;72.00;;;;;;4992883;28;20058;-70
2022/05/04 13:26:17;;;;;;;10.57;5.25;;;17.40;71.90;;;;;;4993055;28;20242;-70
2022/05/04 13:28:44;;;;;;;10.88;5.45;;;17.50;71.50;;;;;;4992460;28;20088;-70
2022/05/04 13:31:10;;;;;;;7.88;4.50;;;17.60;70.90;;;;;;4991947;28;20053;-70
2022/05/04 13:33:35;;;;;;;7.10;4.07;;;17.60;70.80;;;;;;4992808;28;20110;-71
2022/05/04 13:36:01;;;;;;;8.70;4.65;;;17.70;70.90;;;;;;4992749;28;20026;-72
2022/05/04 13:38:27;;;;;;;8.45;4.85;;;17.90;70.60;;;;;;4992815;28;20018;-71
2022/05/04 13:40:53;;;;;;;5.75;3.88;;;17.90;70.40;;;;;;4991923;28;20030;-70
2022/05/04 13:43:19;;;;;;;4.43;3.97;;;18.00;70.20;;;;;;4991493;28;20392;-70